Pays
Station

 

Conditions  météo  pour  Whidbey Island, Naval Air Station  -  Etats-Unis    Etats-Unis

  
19 °C
    
 
 

METAR pour Whidbey Island, Naval Air Station :

KNUW 172356Z 25008KT 10SM FEW050 FEW250 19/12 A3005 RMK SLP176 T01890122 10211 20178 58006

 

Voici le bulletin pour Whidbey Island, Naval Air Station - Etats-Unis.
 
Le bulletin a été fait il y a 49 minutes, à 23:56 UTC .
Le vent soufflait à la vitesse de 4.1 mètres par seconde de Ouest/Sud-ouest (250°).
 
La température était de 19 °C, avec un point de rosée à 12 °C.
La pression atmosphérique était de 1018 hPa.
L'humidité relative était de 63.8%.
 
Il y avait 1 à 2/8ème de nébulosité à une hauteur de 1524 mètres et 1 à 2/8ème de nébulosité à une hauteur de 7620 mètres.
 
La visibilité globale était de 16.1 kilomètres.
 

 
 
 

Pays :   A   B   C   D   E   F   G   H   I   J   K   L   M   N   O   P   Q   R   S   T   U   V   W   Y   Z

 

Partenaires :  Info Météo avec Met'info
Météo Marine avec MeteoMarine.net
Infos Site  |  Infos Légales  |  Crédits  |  Confidentialité
Contactez-nous  |  Ajouter aux favoris
© 2013-2018 METAR - Tous droits réservés